Time;durP1;ratioP1;P1;durP2;ratioP2;P2;SDS_P1;SDS_P2;PMS_P1;PMS_P2;Temp;Humidity;BMP_temperature;BMP_pressure;BME280_temperature;BME280_humidity;BME280_pressure;Samples;Min_cycle;Max_cycle;Signal;HPM_P1;HPM_P2
2021/09/06 00:01:01;;;;;;;;;;;;;;;11.48;73.08;101317.77;1635651;87;20139;-86
2021/09/06 00:03:26;;;;;;;;;;;;;;;11.45;73.02;101314.06;1607006;87;20181;-85
2021/09/06 00:05:56;;;;;;;;;;;;;;;11.47;72.57;101316.09;1609375;87;21077;-85
2021/09/06 00:08:25;;;;;;;;;;;;;;;11.45;72.78;101318.50;1649201;85;20443;-84
2021/09/06 00:11:00;;;;;;;;;;;;;;;11.45;72.63;101319.82;1655746;85;21143;-84
2021/09/06 00:13:29;;;;;;;;;;;;;;;11.44;72.85;101319.00;1645248;85;20098;-87
2021/09/06 00:15:54;;;;;;;;;;;;;;;11.37;73.52;101320.48;1653796;84;20197;-87
2021/09/06 00:18:20;;;;;;;;;;;;;;;11.36;73.42;101320.62;1636987;84;20461;-84
2021/09/06 00:20:45;;;;;;;;;;;;;;;11.30;73.67;101318.86;1655536;86;20137;-88
2021/09/06 00:23:11;;;;;;;;;;;;;;;11.12;74.19;101322.62;1636293;86;21352;-84
2021/09/06 00:25:39;;;;;;;;;;;;;;;10.95;74.77;101317.91;1635762;86;20141;-84
2021/09/06 00:28:04;;;;;;;;;;;;;;;10.99;74.44;101316.69;1654964;86;20229;-84
2021/09/06 00:30:32;;;;;;;;;;;;;;;10.99;74.30;101319.33;1655505;85;20252;-85
2021/09/06 00:32:59;;;;;;;;;;;;;;;10.99;74.23;101324.62;1655853;85;20210;-84
2021/09/06 00:35:26;;;;;;;;;;;;;;;11.01;73.78;101313.91;1618186;86;20894;-85
2021/09/06 00:37:52;;;;;;;;;;;;;;;11.06;73.24;101320.50;1654663;85;20132;-85
2021/09/06 00:40:19;;;;;;;;;;;;;;;10.97;73.68;101321.27;1657418;85;20299;-86
2021/09/06 00:42:46;;;;;;;;;;;;;;;10.97;73.16;101327.88;1635850;86;20622;-85
2021/09/06 00:45:12;;;;;;;;;;;;;;;10.99;73.06;101330.39;1654408;84;20224;-85
2021/09/06 00:47:38;;;;;;;;;;;;;;;11.02;72.68;101318.24;1652961;85;21336;-84
2021/09/06 00:50:08;;;;;;;;;;;;;;;11.00;72.73;101322.34;1635516;86;20836;-88
2021/09/06 00:52:34;;;;;;;;;;;;;;;10.88;74.50;101332.62;1655162;85;20134;-84
2021/09/06 00:55:04;;;;;;;;;;;;;;;10.70;75.52;101329.70;1637417;86;20194;-82
2021/09/06 00:57:29;;;;;;;;;;;;;;;10.53;76.70;101325.35;1653392;85;20191;-86
2021/09/06 00:59:55;;;;;;;;;;;;;;;10.45;77.18;101330.41;1637125;86;21085;-87
2021/09/06 01:02:23;;;;;;;;;;;;;;;10.39;77.62;101327.81;1636382;85;21334;-86
2021/09/06 01:04:50;;;;;;;;;;;;;;;10.30;78.23;101329.84;1654571;85;20217;-85
2021/09/06 01:07:16;;;;;;;;;;;;;;;10.31;78.05;101330.19;1653686;84;20328;-86
2021/09/06 01:09:42;;;;;;;;;;;;;;;10.25;78.30;101328.05;1651515;85;20217;-86
2021/09/06 01:12:11;;;;;;;;;;;;;;;10.26;78.21;101332.37;1653718;85;20698;-87
2021/09/06 01:14:40;;;;;;;;;;;;;;;10.27;78.22;101328.78;1631826;85;20126;-88
2021/09/06 01:17:06;;;;;;;;;;;;;;;10.38;77.50;101335.36;1650273;85;20237;-87
2021/09/06 01:19:33;;;;;;;;;;;;;;;10.46;76.81;101332.09;1652718;85;20196;-86
2021/09/06 01:22:02;;;;;;;;;;;;;;;10.50;76.55;101328.70;1629245;85;20193;-84
2021/09/06 01:24:29;;;;;;;;;;;;;;;10.55;76.26;101330.48;1648983;85;20518;-87
2021/09/06 01:26:55;;;;;;;;;;;;;;;10.58;75.72;101326.27;1649570;85;20125;-89
2021/09/06 01:29:24;;;;;;;;;;;;;;;10.61;75.43;101332.61;1650326;85;20223;-90
2021/09/06 01:31:50;;;;;;;;;;;;;;;10.60;75.67;101325.18;1650187;85;20146;-89
2021/09/06 01:34:18;;;;;;;;;;;;;;;10.59;75.93;101330.09;1653753;85;20216;-88
2021/09/06 01:36:44;;;;;;;;;;;;;;;10.61;75.86;101328.65;1649562;85;21956;-89
2021/09/06 01:39:10;;;;;;;;;;;;;;;10.62;75.65;101324.22;1650820;85;20292;-87
2021/09/06 01:41:40;;;;;;;;;;;;;;;10.62;75.54;101330.34;1649363;85;20126;-89
2021/09/06 01:44:11;;;;;;;;;;;;;;;10.63;75.45;101326.73;1650505;85;20252;-89
2021/09/06 01:46:39;;;;;;;;;;;;;;;10.61;75.53;101335.25;1649238;85;20204;-89
2021/09/06 01:49:05;;;;;;;;;;;;;;;10.62;75.29;101329.51;1650309;85;20965;-88
2021/09/06 01:51:33;;;;;;;;;;;;;;;10.62;75.14;101330.34;1655152;85;20176;-86
2021/09/06 01:53:59;;;;;;;;;;;;;;;10.61;75.01;101331.30;1650045;85;20304;-87
2021/09/06 01:56:27;;;;;;;;;;;;;;;10.62;74.50;101332.98;1650138;85;20192;-86
2021/09/06 01:58:54;;;;;;;;;;;;;;;10.64;74.52;101336.32;1651162;85;20157;-84
2021/09/06 02:01:26;;;;;;;;;;;;;;;10.60;74.90;101338.39;1650570;85;20173;-88
2021/09/06 02:03:51;;;;;;;;;;;;;;;10.59;75.21;101334.55;1648250;85;20129;-88
2021/09/06 02:06:17;;;;;;;;;;;;;;;10.60;75.24;101337.56;1650685;85;20429;-86
2021/09/06 02:08:45;;;;;;;;;;;;;;;10.61;75.54;101331.30;1656329;84;20169;-88
2021/09/06 02:11:11;;;;;;;;;;;;;;;10.61;75.58;101335.25;1664446;85;20573;-86
2021/09/06 02:13:39;;;;;;;;;;;;;;;10.61;75.55;101341.86;1661061;85;21188;-88
2021/09/06 02:16:05;;;;;;;;;;;;;;;10.62;75.85;101342.72;1664879;85;20158;-86
2021/09/06 02:18:31;;;;;;;;;;;;;;;10.51;76.61;101344.92;1617580;86;20133;-85
2021/09/06 02:20:57;;;;;;;;;;;;;;;10.41;76.85;101341.72;1665093;85;20477;-87
2021/09/06 02:23:24;;;;;;;;;;;;;;;10.35;77.64;101338.75;1664091;85;20213;-86
2021/09/06 02:25:49;;;;;;;;;;;;;;;10.31;77.48;101339.92;1664371;85;21122;-86
2021/09/06 02:28:17;;;;;;;;;;;;;;;10.30;77.42;101331.17;1664313;85;20180;-87
2021/09/06 02:30:43;;;;;;;;;;;;;;;10.28;77.91;101335.72;1661689;85;20165;-86
2021/09/06 02:33:09;;;;;;;;;;;;;;;10.29;77.64;101328.16;1663517;85;20177;-84
2021/09/06 02:35:35;;;;;;;;;;;;;;;10.29;77.59;101329.48;1663685;84;20307;-85
2021/09/06 02:38:01;;;;;;;;;;;;;;;10.28;78.32;101334.89;1663708;85;21094;-85
2021/09/06 02:40:27;;;;;;;;;;;;;;;10.27;78.13;101333.20;1660771;85;21098;-82
2021/09/06 02:42:54;;;;;;;;;;;;;;;10.26;78.37;101331.55;1666043;85;20270;-83
2021/09/06 02:45:20;;;;;;;;;;;;;;;10.24;78.44;101329.86;1661704;85;20201;-85
2021/09/06 02:47:46;;;;;;;;;;;;;;;10.23;78.95;101335.26;1661595;85;20256;-83
2021/09/06 02:50:15;;;;;;;;;;;;;;;10.22;78.65;101329.61;1664169;85;22457;-84
2021/09/06 02:52:43;;;;;;;;;;;;;;;10.20;79.33;101330.23;1662921;85;20248;-86
2021/09/06 02:55:12;;;;;;;;;;;;;;;10.16;79.56;101334.07;1662422;85;20129;-87
2021/09/06 02:57:39;;;;;;;;;;;;;;;10.07;79.81;101326.44;1663762;85;20153;-86
2021/09/06 03:00:06;;;;;;;;;;;;;;;9.90;80.19;101326.47;1664330;85;20188;-85
2021/09/06 03:02:31;;;;;;;;;;;;;;;9.78;80.83;101332.72;1662821;85;21163;-86
2021/09/06 03:04:59;;;;;;;;;;;;;;;9.64;81.65;101326.72;1665893;85;20180;-85
2021/09/06 03:07:24;;;;;;;;;;;;;;;9.58;82.08;101333.80;1662228;83;20181;-84
2021/09/06 03:09:50;;;;;;;;;;;;;;;9.49;82.43;101334.52;1613013;87;20235;-85
2021/09/06 03:12:16;;;;;;;;;;;;;;;9.43;82.72;101325.77;1626704;85;20172;-80
2021/09/06 03:14:41;;;;;;;;;;;;;;;9.38;83.06;101329.25;1633232;87;21337;-86
2021/09/06 03:17:09;;;;;;;;;;;;;;;9.31;82.86;101325.77;1625802;86;20151;-85
2021/09/06 03:19:38;;;;;;;;;;;;;;;9.37;82.76;101326.24;1629124;86;20183;-85
2021/09/06 03:22:08;;;;;;;;;;;;;;;9.47;81.96;101323.27;1634244;85;20208;-86
2021/09/06 03:24:33;;;;;;;;;;;;;;;9.55;81.33;101324.81;1633319;85;20113;-87
2021/09/06 03:27:00;;;;;;;;;;;;;;;9.60;81.00;101320.03;1626151;86;22039;-87
2021/09/06 03:29:32;;;;;;;;;;;;;;;9.66;80.64;101314.27;1607366;87;20141;-86
2021/09/06 03:31:59;;;;;;;;;;;;;;;9.67;80.41;101314.61;1630146;86;20153;-86
2021/09/06 03:34:27;;;;;;;;;;;;;;;9.72;80.27;101312.10;1628726;85;21196;-85
2021/09/06 03:36:52;;;;;;;;;;;;;;;9.74;80.13;101312.81;1633964;87;20133;-85
2021/09/06 03:39:19;;;;;;;;;;;;;;;9.76;79.59;101309.09;1631750;85;21230;-83
2021/09/06 03:41:45;;;;;;;;;;;;;;;9.79;79.57;101310.63;1627121;87;20763;-87
2021/09/06 03:44:12;;;;;;;;;;;;;;;9.80;79.38;101307.87;1604360;87;20136;-85
2021/09/06 03:46:38;;;;;;;;;;;;;;;9.80;79.46;101310.51;1632944;85;20564;-85
2021/09/06 03:49:05;;;;;;;;;;;;;;;9.54;80.80;101309.97;1625611;87;20144;-85
2021/09/06 03:51:32;;;;;;;;;;;;;;;9.32;81.49;101313.42;1632987;87;21135;-84
2021/09/06 03:53:59;;;;;;;;;;;;;;;9.28;81.79;101314.14;1607463;87;20188;-84
2021/09/06 03:56:25;;;;;;;;;;;;;;;9.26;81.78;101314.75;1628673;87;20136;-84
2021/09/06 03:58:51;;;;;;;;;;;;;;;9.33;81.19;101310.66;1630410;87;20172;-82
2021/09/06 04:01:17;;;;;;;;;;;;;;;9.40;80.82;101318.09;1604874;86;20612;-84
2021/09/06 04:03:45;;;;;;;;;;;;;;;9.42;80.57;101312.25;1625537;87;21978;-85
2021/09/06 04:06:13;;;;;;;;;;;;;;;9.47;80.23;101314.03;1602142;87;20177;-85
2021/09/06 04:08:38;;;;;;;;;;;;;;;9.51;79.84;101310.20;1629304;85;20430;-85
2021/09/06 04:11:06;;;;;;;;;;;;;;;9.54;79.65;101309.97;1626475;85;20183;-85
2021/09/06 04:13:32;;;;;;;;;;;;;;;9.56;79.62;101310.67;1634563;85;20188;-85
2021/09/06 04:15:59;;;;;;;;;;;;;;;9.60;79.60;101305.98;1611002;85;21083;-86
2021/09/06 04:18:27;;;;;;;;;;;;;;;9.60;80.63;101304.21;1608846;87;20152;-86
2021/09/06 04:20:55;;;;;;;;;;;;;;;9.63;80.47;101313.20;1604251;87;20183;-88
2021/09/06 04:23:23;;;;;;;;;;;;;;;9.63;80.64;101317.16;1633404;87;20148;-85
2021/09/06 04:25:52;;;;;;;;;;;;;;;9.67;80.51;101314.61;1636955;85;20213;-84
2021/09/06 04:28:19;;;;;;;;;;;;;;;9.73;80.52;101317.75;1630969;86;21109;-85
2021/09/06 04:30:45;;;;;;;;;;;;;;;9.76;80.46;101322.29;1605362;87;20202;-82
2021/09/06 04:33:11;;;;;;;;;;;;;;;9.81;80.27;101324.56;1631305;85;20496;-85
2021/09/06 04:35:38;;;;;;;;;;;;;;;9.83;80.34;101320.81;1629147;85;20195;-83
2021/09/06 04:38:05;;;;;;;;;;;;;;;9.89;80.59;101328.73;1610923;87;20172;-85
2021/09/06 04:40:31;;;;;;;;;;;;;;;9.97;83.14;101330.27;1610145;86;22073;-84
2021/09/06 04:42:56;;;;;;;;;;;;;;;10.03;81.45;101332.42;1626252;87;20218;-86
2021/09/06 04:45:24;;;;;;;;;;;;;;;10.04;80.83;101326.19;1630280;87;20137;-86
2021/09/06 04:47:49;;;;;;;;;;;;;;;10.11;80.36;101332.30;1625596;87;20449;-84
2021/09/06 04:50:17;;;;;;;;;;;;;;;10.08;80.34;101329.91;1630161;86;20234;-83
2021/09/06 04:52:42;;;;;;;;;;;;;;;10.14;80.20;101330.72;1621225;87;21105;-85
2021/09/06 04:55:11;;;;;;;;;;;;;;;10.19;80.11;101332.05;1624782;87;20206;-82
2021/09/06 04:57:37;;;;;;;;;;;;;;;10.24;80.05;101335.63;1630338;87;20524;-83
2021/09/06 05:00:05;;;;;;;;;;;;;;;10.30;79.90;101339.09;1631419;87;20213;-84
2021/09/06 05:02:31;;;;;;;;;;;;;;;10.38;79.75;101339.33;1603732;87;21206;-80
2021/09/06 05:04:57;;;;;;;;;;;;;;;10.37;79.86;101339.45;1603573;87;21058;-82
2021/09/06 05:07:23;;;;;;;;;;;;;;;10.18;81.39;101342.72;1628774;85;20254;-82
2021/09/06 05:09:50;;;;;;;;;;;;;;;10.04;82.49;101340.70;1653561;85;20236;-82
2021/09/06 05:12:18;;;;;;;;;;;;;;;10.01;82.96;101346.23;1664550;85;20282;-81
2021/09/06 05:14:44;;;;;;;;;;;;;;;9.98;83.39;101346.47;1659851;85;20188;-81
2021/09/06 05:17:11;;;;;;;;;;;;;;;10.02;83.44;101351.87;1660817;85;21799;-85
2021/09/06 05:19:40;;;;;;;;;;;;;;;10.06;83.21;101348.01;1663783;85;20161;-87
2021/09/06 05:22:07;;;;;;;;;;;;;;;10.08;83.37;101353.16;1664864;85;20157;-84
2021/09/06 05:24:33;;;;;;;;;;;;;;;10.19;82.98;101354.94;1662619;85;20218;-81
2021/09/06 05:26:59;;;;;;;;;;;;;;;10.29;82.61;101349.78;1661832;85;20160;-81
2021/09/06 05:29:29;;;;;;;;;;;;;;;10.30;81.93;101349.66;1660739;85;21096;-81
2021/09/06 05:31:54;;;;;;;;;;;;;;;10.38;81.65;101349.89;1662668;85;20283;-82
2021/09/06 05:34:22;;;;;;;;;;;;;;;10.49;81.20;101348.18;1663491;84;20216;-80
2021/09/06 05:36:49;;;;;;;;;;;;;;;10.62;80.88;101353.28;1659963;85;20481;-85
2021/09/06 05:39:14;;;;;;;;;;;;;;;10.59;80.46;101346.44;1661052;84;20192;-84
2021/09/06 05:41:40;;;;;;;;;;;;;;;10.64;80.33;101348.70;1662499;85;20723;-78
2021/09/06 05:44:08;;;;;;;;;;;;;;;10.68;79.87;101347.00;1640133;85;21311;-85
2021/09/06 05:46:33;;;;;;;;;;;;;;;10.76;79.49;101340.59;1664750;84;20194;-85
2021/09/06 05:49:02;;;;;;;;;;;;;;;10.72;79.52;101355.04;1665464;84;20562;-85
2021/09/06 05:51:29;;;;;;;;;;;;;;;10.76;79.57;101351.16;1663329;85;20197;-85
2021/09/06 05:54:00;;;;;;;;;;;;;;;10.76;79.63;101357.76;1663207;85;21119;-86
2021/09/06 05:56:26;;;;;;;;;;;;;;;10.77;79.44;101355.48;1666030;84;20133;-85
2021/09/06 05:58:53;;;;;;;;;;;;;;;10.91;78.87;101353.50;1663208;85;20172;-86
2021/09/06 06:01:19;;;;;;;;;;;;;;;10.95;78.42;101360.19;1665308;85;20161;-81
2021/09/06 06:03:44;;;;;;;;;;;;;;;11.05;77.67;101364.24;1663704;85;20279;-82
2021/09/06 06:06:10;;;;;;;;;;;;;;;11.06;77.12;101368.08;1662097;84;21158;-86
2021/09/06 06:08:38;;;;;;;;;;;;;;;11.07;77.02;101360.48;1663811;84;20156;-84
2021/09/06 06:11:05;;;;;;;;;;;;;;;11.18;76.56;101368.00;1662751;85;20150;-86
2021/09/06 06:13:31;;;;;;;;;;;;;;;11.29;75.88;101373.20;1637327;86;20232;-83
2021/09/06 06:15:57;;;;;;;;;;;;;;;11.38;75.58;101364.48;1660012;85;20268;-84
2021/09/06 06:18:22;;;;;;;;;;;;;;;11.43;75.10;101372.85;1660261;85;21924;-86
2021/09/06 06:20:48;;;;;;;;;;;;;;;11.54;74.62;101375.08;1661409;85;20260;-83
2021/09/06 06:23:15;;;;;;;;;;;;;;;11.65;73.89;101374.97;1660057;85;20806;-86
2021/09/06 06:25:43;;;;;;;;;;;;;;;11.70;73.09;101372.79;1637446;86;20353;-86
2021/09/06 06:28:10;;;;;;;;;;;;;;;11.74;73.28;101376.83;1635800;86;20179;-85
2021/09/06 06:30:36;;;;;;;;;;;;;;;11.80;72.42;101372.32;1635290;86;21142;-83
2021/09/06 06:33:06;;;;;;;;;;;;;;;11.90;73.07;101376.34;1614906;86;20581;-85
2021/09/06 06:35:37;;;;;;;;;;;;;;;11.97;71.11;101377.98;1636602;86;20239;-86
2021/09/06 06:38:03;;;;;;;;;;;;;;;11.99;70.87;101379.54;1638279;86;20488;-86
2021/09/06 06:40:29;;;;;;;;;;;;;;;12.05;70.21;101387.91;1638183;86;20457;-82
2021/09/06 06:42:54;;;;;;;;;;;;;;;12.13;70.24;101383.59;1635939;86;21185;-83
2021/09/06 06:45:20;;;;;;;;;;;;;;;12.21;69.91;101385.09;1637725;86;20311;-85
2021/09/06 06:47:45;;;;;;;;;;;;;;;12.24;69.44;101385.78;1636130;85;20174;-84
2021/09/06 06:50:13;;;;;;;;;;;;;;;12.33;69.44;101391.58;1636619;86;20484;-83
2021/09/06 06:52:41;;;;;;;;;;;;;;;12.40;68.66;101390.07;1634760;86;20473;-81
2021/09/06 06:55:10;;;;;;;;;;;;;;;12.46;68.03;101394.82;1636703;86;21043;-82
2021/09/06 06:57:38;;;;;;;;;;;;;;;12.53;67.88;101395.92;1611584;87;20159;-81
2021/09/06 07:00:05;;;;;;;;;;;;;;;12.64;67.70;101388.83;1635321;86;20219;-83
2021/09/06 07:02:31;;;;;;;;;;;;;;;12.67;67.97;101393.84;1633896;86;20199;-85
2021/09/06 07:04:58;;;;;;;;;;;;;;;12.70;68.36;101394.90;1637756;86;20136;-84
2021/09/06 07:07:25;;;;;;;;;;;;;;;12.75;67.70;101395.30;1638762;86;21349;-84
2021/09/06 07:09:51;;;;;;;;;;;;;;;12.89;67.26;101401.50;1630158;86;20496;-84
2021/09/06 07:12:17;;;;;;;;;;;;;;;13.01;67.29;101400.05;1649088;85;20240;-85
2021/09/06 07:14:43;;;;;;;;;;;;;;;13.14;67.06;101395.27;1670935;84;21048;-86
2021/09/06 07:17:08;;;;;;;;;;;;;;;13.29;67.27;101405.78;1668696;84;20168;-83
2021/09/06 07:19:38;;;;;;;;;;;;;;;13.45;66.49;101407.89;1669679;84;21007;-84
2021/09/06 07:22:06;;;;;;;;;;;;;;;13.49;66.03;101408.42;1668436;84;20150;-84
2021/09/06 07:24:33;;;;;;;;;;;;;;;13.65;65.56;101400.67;1670171;84;21054;-85
2021/09/06 07:26:59;;;;;;;;;;;;;;;13.73;64.60;101405.75;1671535;83;20201;-85
2021/09/06 07:29:26;;;;;;;;;;;;;;;13.75;64.14;101402.45;1669456;84;20442;-83
2021/09/06 07:31:51;;;;;;;;;;;;;;;13.81;64.16;101407.18;1671392;84;21107;-83
2021/09/06 07:34:17;;;;;;;;;;;;;;;13.90;63.44;101408.95;1668233;84;20477;-85
2021/09/06 07:36:42;;;;;;;;;;;;;;;13.95;63.41;101406.72;1670747;84;20184;-83
2021/09/06 07:39:08;;;;;;;;;;;;;;;14.04;61.97;101408.14;1669613;84;20148;-84
2021/09/06 07:41:35;;;;;;;;;;;;;;;14.08;61.63;101408.19;1671360;84;20196;-84
2021/09/06 07:44:01;;;;;;;;;;;;;;;14.10;61.37;101408.88;1648390;84;22759;-82
2021/09/06 07:46:27;;;;;;;;;;;;;;;14.19;60.95;101411.97;1669299;84;20184;-82
2021/09/06 07:48:53;;;;;;;;;;;;;;;14.22;60.51;101413.00;1672283;84;20148;-83
2021/09/06 07:51:18;;;;;;;;;;;;;;;14.22;58.10;101402.38;1671187;84;20208;-88
2021/09/06 07:53:45;;;;;;;;;;;;;;;14.29;57.90;101407.44;1647411;86;20173;-82
2021/09/06 07:56:10;;;;;;;;;;;;;;;14.34;58.42;101403.84;1668406;84;21943;-85
2021/09/06 07:58:36;;;;;;;;;;;;;;;14.39;58.23;101403.38;1669820;84;20242;-81
2021/09/06 08:01:04;;;;;;;;;;;;;;;14.48;57.48;101410.92;1647778;85;21134;-80
2021/09/06 08:03:31;;;;;;;;;;;;;;;14.54;57.31;101415.17;1671628;84;20133;-79
2021/09/06 08:05:58;;;;;;;;;;;;;;;14.66;58.24;101407.81;1669053;84;20522;-87
2021/09/06 08:08:25;;;;;;;;;;;;;;;14.70;56.82;101407.87;1669707;84;21959;-87
2021/09/06 08:10:50;;;;;;;;;;;;;;;14.79;56.35;101409.27;1656846;84;20151;-85
2021/09/06 08:13:17;;;;;;;;;;;;;;;14.86;56.13;101410.33;1648428;85;20137;-85
2021/09/06 08:15:45;;;;;;;;;;;;;;;14.90;55.62;101410.37;1648645;85;20547;-82
2021/09/06 08:18:11;;;;;;;;;;;;;;;14.96;54.96;101404.44;1652469;85;20729;-85
2021/09/06 08:20:39;;;;;;;;;;;;;;;15.04;54.62;101410.32;1648946;85;21904;-87
2021/09/06 08:23:05;;;;;;;;;;;;;;;15.14;53.67;101403.06;1650830;85;20196;-84
2021/09/06 08:25:30;;;;;;;;;;;;;;;15.21;53.06;101400.61;1650971;85;20331;-85
2021/09/06 08:27:56;;;;;;;;;;;;;;;15.28;53.49;101406.98;1648623;85;20794;-87
2021/09/06 08:30:22;;;;;;;;;;;;;;;15.30;53.28;101407.66;1650015;85;20130;-86
2021/09/06 08:32:49;;;;;;;;;;;;;;;15.30;52.16;101416.97;1649143;85;21269;-87
2021/09/06 08:35:14;;;;;;;;;;;;;;;15.31;51.65;101409.34;1648840;85;20155;-86
2021/09/06 08:37:43;;;;;;;;;;;;;;;15.34;51.75;101412.19;1652551;85;20142;-88
2021/09/06 08:40:10;;;;;;;;;;;;;;;15.33;50.81;101409.18;1648539;85;20519;-84
2021/09/06 08:42:38;;;;;;;;;;;;;;;15.39;51.37;101412.05;1649006;85;20561;-84
2021/09/06 08:45:05;;;;;;;;;;;;;;;15.48;50.35;101412.11;1633852;85;21506;-85
2021/09/06 08:47:32;;;;;;;;;;;;;;;15.50;50.21;101410.13;1632998;85;21094;-85
2021/09/06 08:49:58;;;;;;;;;;;;;;;15.52;48.61;101418.77;1653959;84;20163;-83
2021/09/06 08:52:24;;;;;;;;;;;;;;;15.53;49.28;101415.12;1635601;85;20183;-84
2021/09/06 08:54:50;;;;;;;;;;;;;;;15.63;50.36;101414.53;1654938;85;20130;-82
2021/09/06 08:57:19;;;;;;;;;;;;;;;15.72;50.17;101406.92;1653717;85;21056;-81
2021/09/06 08:59:44;;;;;;;;;;;;;;;15.76;49.25;101408.26;1652161;85;20113;-86
2021/09/06 09:02:12;;;;;;;;;;;;;;;15.92;49.97;101402.19;1652545;85;20193;-84
2021/09/06 09:04:39;;;;;;;;;;;;;;;16.08;49.93;101401.44;1654796;85;20210;-82
2021/09/06 09:07:05;;;;;;;;;;;;;;;16.10;48.80;101404.77;1652309;85;20229;-87
2021/09/06 09:09:37;;;;;;;;;;;;;;;16.19;49.12;101402.11;1653199;85;21122;-86
2021/09/06 09:12:07;;;;;;;;;;;;;;;16.23;48.75;101404.30;1660735;85;20317;-83
2021/09/06 09:14:34;;;;;;;;;;;;;;;16.24;48.00;101402.48;1657455;85;21085;-86
2021/09/06 09:17:00;;;;;;;;;;;;;;;16.32;48.21;101403.83;1636782;85;20530;-84
2021/09/06 09:19:26;;;;;;;;;;;;;;;16.33;47.33;101406.84;1636967;85;20199;-85
2021/09/06 09:22:03;;;;;;;;;;;;;;;16.36;47.87;101402.52;1651951;85;21120;-86
2021/09/06 09:24:29;;;;;;;;;;;;;;;16.33;47.25;101394.33;1653889;85;20190;-84
2021/09/06 09:27:02;;;;;;;;;;;;;;;16.40;46.29;101397.17;1637225;85;20256;-84
2021/09/06 09:29:29;;;;;;;;;;;;;;;16.39;46.56;101392.86;1655100;85;20130;-85
2021/09/06 09:31:58;;;;;;;;;;;;;;;16.45;47.54;101394.87;1659697;84;20194;-88
2021/09/06 09:34:24;;;;;;;;;;;;;;;16.46;46.48;101389.84;1636448;86;21141;-86
2021/09/06 09:36:52;;;;;;;;;;;;;;;16.49;47.13;101393.52;1657055;85;20837;-86
2021/09/06 09:39:19;;;;;;;;;;;;;;;16.58;47.73;101402.86;1656445;85;20102;-88
2021/09/06 09:41:47;;;;;;;;;;;;;;;16.61;46.37;101399.86;1656957;85;20153;-86
2021/09/06 09:44:16;;;;;;;;;;;;;;;16.58;45.82;101398.86;1654609;85;20128;-86
2021/09/06 09:46:56;;;;;;;;;;;;;;;16.63;46.53;101398.70;1657314;85;20206;-82
2021/09/06 09:49:23;;;;;;;;;;;;;;;16.67;46.98;101394.72;1653889;85;20121;-83
2021/09/06 09:51:49;;;;;;;;;;;;;;;16.73;46.21;101396.37;1657001;85;20149;-86
2021/09/06 09:54:17;;;;;;;;;;;;;;;16.74;46.92;101390.88;1656222;85;20535;-86
2021/09/06 09:56:43;;;;;;;;;;;;;;;16.78;46.82;101385.55;1657094;85;20126;-87
2021/09/06 09:59:14;;;;;;;;;;;;;;;16.78;47.19;101380.22;1657804;85;21943;-84
2021/09/06 10:01:43;;;;;;;;;;;;;;;16.79;46.37;101375.20;1654772;85;20117;-88
2021/09/06 10:04:10;;;;;;;;;;;;;;;16.84;46.15;101370.22;1657368;85;20090;-87
2021/09/06 10:06:36;;;;;;;;;;;;;;;16.83;46.21;101370.38;1658415;85;20206;-87
2021/09/06 10:09:02;;;;;;;;;;;;;;;16.86;46.85;101362.08;1657466;85;20222;-84
2021/09/06 10:11:38;;;;;;;;;;;;;;;16.88;46.59;101361.91;1660536;84;21080;-86
2021/09/06 10:14:22;;;;;;;;;;;;;;;16.83;45.98;101360.53;1661310;85;20147;-84
2021/09/06 10:17:06;;;;;;;;;;;;;;;16.95;46.27;101361.55;1643656;85;20147;-86
2021/09/06 10:19:49;;;;;;;;;;;;;;;17.14;46.98;101357.20;1661284;85;20154;-85
2021/09/06 10:22:27;;;;;;;;;;;;;;;17.31;46.43;101357.14;1664855;84;20133;-85
2021/09/06 10:25:00;;;;;;;;;;;;;;;17.36;45.36;101356.15;1661100;84;21171;-86
2021/09/06 10:27:35;;;;;;;;;;;;;;;17.31;45.38;101353.99;1660934;85;37561;-84
2021/09/06 10:30:06;;;;;;;;;;;;;;;17.28;44.84;101354.84;1663777;85;20104;-86
2021/09/06 10:32:43;;;;;;;;;;;;;;;17.26;45.74;101354.16;1666778;85;21205;-86
2021/09/06 10:35:11;;;;;;;;;;;;;;;17.27;45.35;101355.33;1665204;85;20155;-86
2021/09/06 10:37:39;;;;;;;;;;;;;;;17.19;45.55;101347.34;1665232;85;21055;-86
2021/09/06 10:40:07;;;;;;;;;;;;;;;17.11;45.13;101346.86;1618940;87;20263;-83
2021/09/06 10:42:34;;;;;;;;;;;;;;;17.15;45.20;101349.53;1619977;87;20102;-83
2021/09/06 10:45:00;;;;;;;;;;;;;;;17.21;45.31;101336.84;1603728;87;20139;-85
2021/09/06 10:47:26;;;;;;;;;;;;;;;17.18;45.43;101335.84;1621401;87;20200;-86
2021/09/06 10:49:51;;;;;;;;;;;;;;;17.26;45.45;101335.48;1621509;87;21097;-86
2021/09/06 10:52:20;;;;;;;;;;;;;;;17.38;45.89;101336.78;1618442;87;20719;-85
2021/09/06 10:54:46;;;;;;;;;;;;;;;17.44;45.77;101340.09;1617795;87;20215;-84
2021/09/06 10:57:15;;;;;;;;;;;;;;;17.52;45.66;101336.05;1621433;86;20144;-85
2021/09/06 10:59:45;;;;;;;;;;;;;;;17.66;45.52;101325.66;1618099;87;20196;-85
2021/09/06 11:02:15;;;;;;;;;;;;;;;17.60;44.78;101324.50;1603148;88;21207;-84
2021/09/06 11:04:41;;;;;;;;;;;;;;;17.69;45.29;101333.33;1617026;87;20157;-83
2021/09/06 11:07:13;;;;;;;;;;;;;;;17.73;44.56;101332.80;1619025;87;20148;-84
2021/09/06 11:09:41;;;;;;;;;;;;;;;17.77;44.53;101335.95;1617248;87;20162;-84
2021/09/06 11:12:12;;;;;;;;;;;;;;;17.83;44.58;101324.56;1614410;87;20221;-84
2021/09/06 11:14:42;;;;;;;;;;;;;;;17.80;44.32;101324.91;1630929;86;20187;-84
2021/09/06 11:17:20;;;;;;;;;;;;;;;17.82;43.89;101322.06;1639278;86;20472;-85
2021/09/06 11:19:49;;;;;;;;;;;;;;;17.83;44.50;101316.55;1617345;87;20229;-83
2021/09/06 11:22:16;;;;;;;;;;;;;;;17.90;45.15;101318.06;1613687;88;20552;-83
2021/09/06 11:24:44;;;;;;;;;;;;;;;17.91;44.84;101311.21;1649943;85;20201;-87
2021/09/06 11:27:29;;;;;;;;;;;;;;;17.92;44.24;101310.19;1643083;85;21107;-87
2021/09/06 11:29:56;;;;;;;;;;;;;;;17.90;44.36;101310.88;1654809;85;20123;-87
2021/09/06 11:32:24;;;;;;;;;;;;;;;17.89;44.01;101317.22;1599387;88;20184;-87
2021/09/06 11:35:03;;;;;;;;;;;;;;;17.94;43.62;101314.02;1650108;86;20666;-86
2021/09/06 11:37:28;;;;;;;;;;;;;;;18.02;42.88;101322.48;1652802;84;20169;-86
2021/09/06 11:39:54;;;;;;;;;;;;;;;18.04;42.25;101315.14;1653745;85;21220;-87
2021/09/06 11:42:23;;;;;;;;;;;;;;;18.00;42.23;101309.30;1613896;87;20190;-86
2021/09/06 11:44:48;;;;;;;;;;;;;;;18.09;43.26;101304.75;1648757;86;20562;-86
2021/09/06 11:47:15;;;;;;;;;;;;;;;18.16;42.41;101310.20;1650317;85;20118;-87
2021/09/06 11:49:55;;;;;;;;;;;;;;;18.19;43.35;101299.98;1636012;86;20133;-86
2021/09/06 11:52:29;;;;;;;;;;;;;;;18.20;42.60;101301.66;1612438;87;21043;-87
2021/09/06 11:54:55;;;;;;;;;;;;;;;18.20;42.56;101298.98;1612586;87;20189;-79
2021/09/06 11:57:27;;;;;;;;;;;;;;;18.23;42.02;101305.31;1625891;86;20172;-83
2021/09/06 11:59:54;;;;;;;;;;;;;;;18.32;42.10;101299.89;1614181;87;20216;-80
2021/09/06 12:02:19;;;;;;;;;;;;;;;18.41;42.98;101296.99;1651285;85;20181;-79
2021/09/06 12:04:45;;;;;;;;;;;;;;;18.45;43.03;101293.45;1611876;87;21333;-81
2021/09/06 12:07:16;;;;;;;;;;;;;;;18.51;43.49;101290.05;1595917;87;20955;-83
2021/09/06 12:09:43;;;;;;;;;;;;;;;18.63;43.36;101289.94;1613284;87;20173;-84
2021/09/06 12:12:19;;;;;;;;;;;;;;;18.68;43.04;101287.23;1663383;84;20185;-84
2021/09/06 12:14:45;;;;;;;;;;;;;;;18.61;42.72;101290.64;1669048;84;20473;-82
2021/09/06 12:17:13;;;;;;;;;;;;;;;18.75;42.93;101277.45;1669516;84;21028;-83
2021/09/06 12:19:44;;;;;;;;;;;;;;;18.83;43.11;101276.02;1646941;86;20129;-84
2021/09/06 12:22:22;;;;;;;;;;;;;;;18.88;42.64;101271.00;1668304;83;20230;-82
2021/09/06 12:24:50;;;;;;;;;;;;;;;18.87;41.34;101269.33;1666535;84;20197;-83
2021/09/06 12:27:17;;;;;;;;;;;;;;;18.93;41.37;101275.29;1671248;84;20520;-85
2021/09/06 12:29:47;;;;;;;;;;;;;;;19.02;42.05;101265.33;1668505;84;21900;-86
2021/09/06 12:32:14;;;;;;;;;;;;;;;19.03;41.27;101264.81;1669544;84;20228;-85
2021/09/06 12:34:39;;;;;;;;;;;;;;;19.07;41.64;101259.42;1647848;84;20164;-83
2021/09/06 12:37:07;;;;;;;;;;;;;;;19.26;41.95;101254.83;1674351;84;20132;-83
2021/09/06 12:39:36;;;;;;;;;;;;;;;19.28;40.78;101251.47;1649778;84;20200;-84